หน้าหลัก
METAR-TAF:

METAR-TAF

ท่าอากาศยาน :

ท่าอากาศยานออสโล การ์เดอร์มอน

ออสโล, นอร์เวย์

ละติจูด: 60-12N, ลองจิจูด: 011-05E, ความสูง: 208 ม.

การสังเกตสภาพอากาศปัจจุบัน

รายงานได้ทำขึ้นเมื่อ 25 นาทีที่แล้ว ณ เวลา 07:20 UTC
ลม 2 นอตจากทิศทางซึ่งแปรผันได้
อุณหภูมิ 19°C
ความชื้น 73%
ความกดอากาศ 1015 hPa
ทัศนวิสัย 10 กม. หรือมากกว่า
ไม่มีเมฆต่ำกว่า 1,500 ม. และไม่มีเมฆคิวมูโลนิมบัส

METAR: ENGM 200720Z VRB02KT CAVOK 19/14 Q1015 NOSIG

เวลา: 09:45 (07:45 UTC)

การพยากรณ์

รายงานได้ทำขึ้นเมื่อ 2 ชั่วโมงและ 45 นาทีที่แล้ว ณ เวลา 05:00 UTC
การพยากรณ์มีผลตั้งแต่วันที่ 20 ณ เวลา 06 UTC จนถึงวันที่ 21 ณ เวลา 06 UTC
ลม 3 นอตจากทิศทางซึ่งแปรผันได้
ทัศนวิสัย 10 กม. หรือมากกว่า
ไม่มีเมฆต่ำกว่า 1,500 ม. และไม่มีเมฆคิวมูโลนิมบัส
กำลังกลายเป็น
ตั้งแต่วันที่ 20 ณ เวลา 08 UTC จนถึงวันที่ 20 ณ เวลา 10 UTC
ลม 10 นอตจากใต้
กำลังกลายเป็น
ตั้งแต่วันที่ 20 ณ เวลา 22 UTC จนถึงวันที่ 20 ณ เวลา 24 UTC
ลม 3 นอตจากทิศทางซึ่งแปรผันได้

TAF: ENGM 200500Z 2006/2106 VRB03KT CAVOK BECMG 2008/2010 19010KT BECMG 2022/2024 VRB03KT

สังเกตการณ์สภาพอากาศและพยากรณ์อากาศของสนามบินมากกว่า 4000 แห่ง (รายงาน METAR และ TAF).

สถานีที่ดูได้จะแสดงไว้ด้วยจุดสีเหลืองและสีแดงบนแผนที่.

เลื่อนเมาส์ไปเหนือจุดเพื่อดูชื่อสถานี.

แล้วคลิกเพื่อดูสังเกตการณ์และการพยากรณ์สภาพอากาศ.

ในการเปลี่ยนแผนที่: คลิกที่ปุ่มสีเขียวที่มีกากบาทสีดำเพื่อซูมเข้า; ที่ปุ่มสีเขียวที่มีขีดเพื่อซูมออก; หรือที่ลูกศรสีเขียวเพื่อไปยังแผนที่ที่อยู่ติดกัน.


METAR-TAF: